Time;durP1;ratioP1;P1;durP2;ratioP2;P2;SDS_P1;SDS_P2;PMS_P1;PMS_P2;Temp;Humidity;BMP_temperature;BMP_pressure;BME280_temperature;BME280_humidity;BME280_pressure;Samples;Min_cycle;Max_cycle;Signal;HPM_P1;HPM_P2
2022/06/28 00:00:32;;;;;;;1.00;0.82;;;22.00;61.30;;;;;;4918037;28;87887;-70
2022/06/28 00:02:57;;;;;;;1.60;0.98;;;22.00;61.20;;;;;;4917323;28;88169;-69
2022/06/28 00:05:23;;;;;;;1.17;0.95;;;22.00;61.30;;;;;;4920419;28;87263;-69
2022/06/28 00:07:49;;;;;;;1.90;1.00;;;22.00;61.40;;;;;;4917089;28;87779;-70
2022/06/28 00:10:16;;;;;;;1.00;0.90;;;22.00;61.40;;;;;;4922296;28;86988;-71
2022/06/28 00:12:42;;;;;;;0.93;0.80;;;22.00;61.40;;;;;;4917242;28;88987;-69
2022/06/28 00:17:55;;;;;;;1.80;0.80;;;22.00;61.30;;;;;;4918897;28;87897;-70
2022/06/28 00:20:21;;;;;;;1.45;1.17;;;22.00;61.30;;;;;;4914764;28;87615;-71
2022/06/28 00:22:47;;;;;;;1.80;0.95;;;22.00;61.20;;;;;;4918911;28;87846;-70
2022/06/28 00:25:13;;;;;;;0.80;0.80;;;22.00;61.40;;;;;;4918134;28;87646;-69
2022/06/28 00:27:40;;;;;;;1.00;0.90;;;22.00;61.30;;;;;;4922083;28;87886;-69
2022/06/28 00:30:07;;;;;;;0.70;0.70;;;22.00;61.40;;;;;;4917633;28;87426;-69
2022/06/28 00:32:32;;;;;;;0.88;0.73;;;22.00;61.30;;;;;;4914428;28;88600;-72
2022/06/28 00:34:59;;;;;;;0.90;0.90;;;22.00;61.40;;;;;;4913332;28;87403;-72
2022/06/28 00:37:25;;;;;;;1.35;0.80;;;22.00;61.20;;;;;;4921176;28;87971;-72
2022/06/28 00:39:51;;;;;;;1.90;1.08;;;22.00;61.30;;;;;;4919348;28;87594;-69
2022/06/28 00:42:16;;;;;;;0.77;0.70;;;21.90;61.20;;;;;;4917712;28;89004;-70
2022/06/28 00:44:43;;;;;;;0.75;0.70;;;22.00;61.30;;;;;;4921562;28;88713;-69
2022/06/28 00:47:09;;;;;;;1.17;0.90;;;22.00;61.30;;;;;;4912683;28;87407;-69
2022/06/28 00:49:39;;;;;;;2.47;1.00;;;22.00;61.50;;;;;;4913638;28;87707;-70
2022/06/28 00:52:05;;;;;;;0.60;0.60;;;22.00;61.20;;;;;;4920621;28;88162;-72
2022/06/28 00:54:31;;;;;;;2.35;1.10;;;22.00;61.30;;;;;;4914782;28;87766;-73
2022/06/28 00:56:57;;;;;;;1.38;0.90;;;22.00;61.40;;;;;;4918015;28;87736;-70
2022/06/28 00:59:22;;;;;;;1.00;0.82;;;22.00;61.20;;;;;;4925475;28;86985;-69
2022/06/28 01:01:48;;;;;;;1.10;1.00;;;22.00;61.40;;;;;;4915012;28;88042;-70
2022/06/28 01:04:14;;;;;;;0.75;0.73;;;22.00;61.40;;;;;;4919650;28;87858;-68
2022/06/28 01:06:39;;;;;;;1.50;0.85;;;22.00;61.40;;;;;;4918097;28;88454;-69
2022/06/28 01:09:05;;;;;;;2.42;1.02;;;22.00;61.40;;;;;;4901351;28;90504;-69
2022/06/28 01:11:32;;;;;;;1.13;1.00;;;21.90;61.30;;;;;;4918403;28;88181;-69
2022/06/28 01:14:00;;;;;;;1.10;1.00;;;22.00;61.50;;;;;;4917926;28;87703;-68
2022/06/28 01:16:27;;;;;;;1.00;0.80;;;22.00;61.40;;;;;;4912018;28;87533;-69
2022/06/28 01:18:52;;;;;;;0.90;0.90;;;22.00;61.40;;;;;;4920031;28;87997;-69
2022/06/28 01:21:18;;;;;;;0.93;0.82;;;22.00;61.20;;;;;;4919489;28;87606;-69
2022/06/28 01:23:45;;;;;;;0.80;0.80;;;22.00;61.40;;;;;;4920296;28;90541;-69
2022/06/28 01:26:13;;;;;;;0.95;0.80;;;22.00;61.40;;;;;;4927634;28;87677;-73
2022/06/28 01:28:40;;;;;;;1.15;0.90;;;22.00;61.40;;;;;;4902956;28;89323;-73
2022/06/28 01:31:06;;;;;;;1.30;1.15;;;22.00;61.30;;;;;;4914960;28;90446;-71
2022/06/28 01:33:32;;;;;;;1.40;0.85;;;22.00;61.40;;;;;;4913750;28;88730;-69
2022/06/28 01:35:58;;;;;;;1.50;1.13;;;22.00;61.40;;;;;;4921780;28;87715;-72
2022/06/28 01:38:24;;;;;;;1.63;1.02;;;21.90;61.20;;;;;;4916467;28;87611;-73
2022/06/28 01:40:50;;;;;;;1.15;1.05;;;21.90;61.30;;;;;;4923533;28;88219;-69
2022/06/28 01:43:16;;;;;;;0.80;0.70;;;22.00;61.50;;;;;;4918067;28;88080;-70
2022/06/28 01:45:42;;;;;;;2.47;0.88;;;22.00;61.30;;;;;;4913260;28;88081;-69
2022/06/28 01:48:08;;;;;;;1.10;0.80;;;22.00;61.40;;;;;;4926623;28;86486;-69
2022/06/28 01:50:35;;;;;;;2.25;0.88;;;21.90;61.40;;;;;;4917341;28;88220;-71
2022/06/28 01:53:01;;;;;;;1.20;1.10;;;21.90;61.50;;;;;;4902043;28;91153;-68
2022/06/28 01:55:26;;;;;;;0.73;0.70;;;21.90;61.40;;;;;;4912489;28;89215;-70
2022/06/28 01:57:52;;;;;;;1.42;0.85;;;21.90;61.50;;;;;;4921941;28;87469;-68
2022/06/28 02:00:18;;;;;;;1.00;0.90;;;21.90;61.40;;;;;;4918571;28;87797;-72
2022/06/28 02:02:44;;;;;;;0.80;0.80;;;21.90;61.20;;;;;;4914652;28;88097;-70
2022/06/28 02:05:10;;;;;;;1.10;0.90;;;21.90;61.30;;;;;;4920742;28;87540;-70
2022/06/28 02:07:35;;;;;;;1.00;0.90;;;21.90;61.30;;;;;;4919947;28;88127;-69
2022/06/28 02:10:01;;;;;;;1.17;0.90;;;21.90;61.40;;;;;;4920028;28;88114;-69
2022/06/28 02:12:28;;;;;;;0.75;0.75;;;21.90;61.40;;;;;;4923879;28;88742;-69
2022/06/28 02:14:57;;;;;;;1.00;0.90;;;21.90;61.30;;;;;;4915446;28;88217;-71
2022/06/28 02:17:23;;;;;;;1.23;1.13;;;21.90;61.30;;;;;;4915145;28;88030;-71
2022/06/28 02:19:48;;;;;;;0.60;0.60;;;21.90;61.30;;;;;;4912076;28;88400;-69
2022/06/28 02:22:14;;;;;;;1.33;1.10;;;21.90;61.30;;;;;;4918237;28;88171;-69
2022/06/28 02:24:40;;;;;;;0.88;0.80;;;21.90;61.30;;;;;;4914506;28;87825;-68
2022/06/28 02:27:05;;;;;;;1.15;0.90;;;21.90;61.30;;;;;;4917786;28;88405;-69
2022/06/28 02:29:31;;;;;;;1.63;1.10;;;21.90;61.40;;;;;;4919556;28;88169;-71
2022/06/28 02:31:57;;;;;;;1.17;0.82;;;21.90;61.30;;;;;;4914451;28;89053;-73
2022/06/28 02:42:35;;;;;;;0.65;0.65;;;21.90;61.40;;;;;;4914436;28;87675;-70
2022/06/28 02:45:01;;;;;;;1.65;0.90;;;21.90;61.40;;;;;;4901260;28;88183;-71
2022/06/28 02:47:26;;;;;;;1.13;0.82;;;21.90;61.30;;;;;;4919405;28;87808;-71
2022/06/28 02:49:52;;;;;;;0.70;0.70;;;21.80;61.40;;;;;;4914698;28;87895;-70
2022/06/28 02:52:17;;;;;;;0.90;0.80;;;21.90;61.40;;;;;;4917354;28;89365;-70
2022/06/28 02:54:43;;;;;;;1.42;0.82;;;21.80;61.40;;;;;;4920805;28;87056;-70
2022/06/28 02:57:11;;;;;;;1.02;0.95;;;21.80;61.40;;;;;;4919621;28;87016;-71
2022/06/28 02:59:36;;;;;;;0.63;0.63;;;21.80;61.30;;;;;;4920884;28;87520;-73
2022/06/28 03:02:02;;;;;;;1.92;0.80;;;21.80;61.40;;;;;;4913757;28;87856;-72
2022/06/28 03:04:30;;;;;;;1.42;0.90;;;21.80;61.40;;;;;;4919718;28;88089;-70
2022/06/28 03:06:55;;;;;;;0.80;0.80;;;21.80;61.40;;;;;;4894418;28;89410;-72
2022/06/28 03:09:21;;;;;;;1.08;0.93;;;21.80;62.20;;;;;;4915487;28;88430;-74
2022/06/28 03:11:47;;;;;;;0.98;0.73;;;21.80;61.50;;;;;;4917443;28;88157;-71
2022/06/28 03:14:12;;;;;;;1.00;0.88;;;21.80;61.50;;;;;;4921657;28;87582;-73
2022/06/28 03:16:38;;;;;;;1.67;0.90;;;21.80;61.40;;;;;;4919470;28;88138;-70
2022/06/28 03:19:03;;;;;;;0.95;0.85;;;21.80;61.40;;;;;;4916410;28;89572;-69
2022/06/28 03:21:29;;;;;;;1.35;0.70;;;21.80;61.40;;;;;;4896986;28;91196;-70
2022/06/28 03:23:55;;;;;;;1.45;1.00;;;21.80;61.30;;;;;;4920360;28;87964;-69
2022/06/28 03:26:20;;;;;;;1.02;0.80;;;21.80;61.50;;;;;;4916053;28;86651;-73
2022/06/28 03:28:46;;;;;;;0.80;0.70;;;21.80;61.50;;;;;;4916543;28;88144;-69
2022/06/28 03:31:11;;;;;;;2.00;1.00;;;21.80;61.50;;;;;;4911781;28;87791;-75
2022/06/28 03:33:38;;;;;;;1.17;0.85;;;21.80;61.40;;;;;;4901422;28;88142;-69
2022/06/28 03:36:03;;;;;;;0.80;0.68;;;21.80;61.40;;;;;;4924641;28;87134;-72
2022/06/28 03:38:29;;;;;;;0.98;0.88;;;21.80;61.50;;;;;;4895038;28;88299;-68
2022/06/28 03:40:55;;;;;;;1.17;1.08;;;21.80;61.40;;;;;;4918419;28;88031;-71
2022/06/28 03:43:20;;;;;;;1.40;0.90;;;21.80;61.40;;;;;;4919467;28;87904;-70
2022/06/28 03:45:46;;;;;;;0.65;0.65;;;21.80;61.40;;;;;;4902021;28;87522;-69
2022/06/28 03:48:12;;;;;;;0.85;0.80;;;21.80;61.50;;;;;;4915503;28;88000;-71
2022/06/28 03:50:37;;;;;;;1.30;0.88;;;21.80;61.40;;;;;;4922498;28;88019;-70
2022/06/28 03:53:03;;;;;;;1.10;0.93;;;21.80;61.50;;;;;;4915643;28;87363;-71
2022/06/28 03:55:29;;;;;;;0.80;0.73;;;21.80;61.30;;;;;;4915986;28;87960;-73
2022/06/28 03:57:54;;;;;;;0.95;0.68;;;21.80;61.40;;;;;;4918139;28;88880;-71
2022/06/28 04:00:20;;;;;;;0.82;0.73;;;21.80;61.40;;;;;;4919562;28;89102;-72
2022/06/28 04:02:46;;;;;;;0.80;0.80;;;21.80;61.30;;;;;;4915412;28;88039;-70
2022/06/28 04:05:12;;;;;;;0.63;0.60;;;21.80;61.40;;;;;;4915617;28;87292;-72
2022/06/28 04:07:37;;;;;;;0.80;0.80;;;21.80;61.40;;;;;;4915545;28;88179;-73
2022/06/28 04:10:03;;;;;;;1.00;0.90;;;21.80;61.40;;;;;;4913582;28;87488;-73
2022/06/28 04:12:29;;;;;;;1.00;0.90;;;21.80;61.40;;;;;;4914637;28;88105;-70
2022/06/28 04:14:54;;;;;;;0.77;0.77;;;21.80;61.50;;;;;;4919812;28;88307;-69
2022/06/28 04:17:20;;;;;;;0.70;0.70;;;21.80;61.40;;;;;;4924298;28;88576;-69
2022/06/28 04:19:45;;;;;;;1.73;0.85;;;21.80;61.50;;;;;;4916594;28;87870;-74
2022/06/28 04:22:11;;;;;;;1.05;0.90;;;21.80;61.50;;;;;;4912418;28;88518;-72
2022/06/28 04:24:37;;;;;;;1.15;0.75;;;21.80;61.50;;;;;;4913635;28;87601;-72
2022/06/28 04:27:02;;;;;;;1.23;0.90;;;21.80;61.40;;;;;;4917086;28;87747;-71
2022/06/28 04:29:28;;;;;;;1.25;0.75;;;21.80;61.40;;;;;;4901397;28;90572;-69
2022/06/28 04:31:54;;;;;;;0.77;0.73;;;21.80;61.60;;;;;;4917657;28;87559;-69
2022/06/28 04:34:19;;;;;;;0.82;0.82;;;21.80;61.50;;;;;;4910691;28;87005;-69
2022/06/28 04:36:45;;;;;;;1.92;0.70;;;21.80;61.60;;;;;;4919566;28;87945;-69
2022/06/28 04:39:11;;;;;;;0.77;0.77;;;21.90;61.60;;;;;;4924684;28;88727;-72
2022/06/28 04:41:37;;;;;;;0.80;0.70;;;21.90;61.50;;;;;;4915759;28;87559;-69
2022/06/28 04:44:02;;;;;;;1.08;0.85;;;21.90;61.50;;;;;;4911376;28;88126;-69
2022/06/28 04:46:28;;;;;;;1.42;1.10;;;21.90;61.50;;;;;;4895082;28;94042;-71
2022/06/28 04:48:54;;;;;;;1.13;0.90;;;21.90;61.40;;;;;;4911317;28;88799;-72
2022/06/28 04:51:20;;;;;;;1.80;1.05;;;21.90;61.40;;;;;;4920926;28;87950;-73
2022/06/28 04:53:47;;;;;;;1.30;0.80;;;22.00;61.20;;;;;;4905027;28;89107;-70
2022/06/28 04:56:14;;;;;;;0.88;0.70;;;21.90;61.20;;;;;;4900009;28;90765;-71
2022/06/28 04:58:40;;;;;;;0.75;0.65;;;22.00;61.30;;;;;;4914787;28;87913;-72
2022/06/28 05:01:05;;;;;;;0.70;0.70;;;22.00;61.20;;;;;;4895828;28;87483;-69
2022/06/28 05:03:31;;;;;;;1.13;0.70;;;22.00;61.30;;;;;;4900126;28;90549;-70
2022/06/28 05:05:57;;;;;;;1.60;0.90;;;22.00;61.20;;;;;;4918476;28;87654;-73
2022/06/28 05:08:23;;;;;;;1.30;0.93;;;22.00;61.20;;;;;;4921066;28;88035;-73
2022/06/28 05:10:49;;;;;;;0.80;0.65;;;22.00;61.40;;;;;;4917947;28;89214;-72
2022/06/28 05:13:14;;;;;;;1.15;0.73;;;22.00;61.50;;;;;;4916798;28;87376;-70
2022/06/28 05:15:40;;;;;;;0.77;0.60;;;22.00;61.40;;;;;;4909244;28;88194;-69
2022/06/28 05:18:06;;;;;;;1.08;0.98;;;22.00;61.60;;;;;;4911166;28;88053;-69
2022/06/28 05:20:32;;;;;;;1.08;0.85;;;22.00;61.50;;;;;;4911926;28;87099;-69
2022/06/28 05:22:57;;;;;;;0.65;0.60;;;22.00;61.30;;;;;;4921103;28;87843;-70
2022/06/28 05:25:25;;;;;;;1.00;0.60;;;22.00;61.70;;;;;;4913197;28;88688;-69
2022/06/28 05:27:51;;;;;;;0.85;0.70;;;22.10;61.50;;;;;;4915471;28;87695;-69
2022/06/28 05:30:17;;;;;;;2.83;0.85;;;22.10;61.40;;;;;;4917554;28;87680;-70
2022/06/28 05:32:43;;;;;;;4.78;1.00;;;22.10;60.90;;;;;;4918903;28;87814;-69
2022/06/28 05:35:09;;;;;;;5.53;1.42;;;22.10;59.60;;;;;;4919782;28;89088;-69
2022/06/28 05:37:34;;;;;;;2.40;0.88;;;22.10;59.60;;;;;;4921026;28;89280;-71
2022/06/28 05:40:01;;;;;;;6.28;1.10;;;22.10;59.40;;;;;;4912305;28;88006;-71
2022/06/28 05:42:26;;;;;;;8.57;1.10;;;22.10;59.10;;;;;;4921372;28;87200;-70
2022/06/28 05:44:52;;;;;;;20.95;5.13;;;22.10;59.00;;;;;;4921957;28;88531;-68
2022/06/28 05:47:17;;;;;;;11.70;3.05;;;22.10;59.00;;;;;;4920823;28;87877;-68
2022/06/28 05:49:43;;;;;;;12.73;3.38;;;22.10;59.20;;;;;;4919983;28;88395;-68
2022/06/28 05:52:09;;;;;;;16.38;3.30;;;22.10;59.10;;;;;;4900722;28;88003;-68
2022/06/28 05:54:35;;;;;;;6.50;1.92;;;22.10;58.80;;;;;;4921715;28;88230;-69
2022/06/28 05:57:01;;;;;;;4.65;1.30;;;22.20;60.00;;;;;;4916226;28;87890;-69
2022/06/28 05:59:27;;;;;;;33.28;4.63;;;22.10;58.40;;;;;;4918669;28;89895;-71
2022/06/28 06:01:55;;;;;;;48.58;5.22;;;22.10;57.80;;;;;;4925467;28;87296;-70
2022/06/28 06:04:22;;;;;;;24.08;3.85;;;22.00;56.90;;;;;;4924658;28;88046;-69
2022/06/28 06:06:49;;;;;;;18.13;2.47;;;22.00;56.80;;;;;;4922039;28;88182;-69
2022/06/28 06:09:14;;;;;;;13.10;1.63;;;21.90;56.70;;;;;;4918341;28;87715;-68
2022/06/28 06:11:40;;;;;;;13.25;2.33;;;22.00;56.50;;;;;;4919348;28;87971;-69
2022/06/28 06:14:06;;;;;;;9.55;1.92;;;21.90;56.30;;;;;;4918122;28;87907;-68
2022/06/28 06:16:31;;;;;;;9.32;1.95;;;22.00;56.50;;;;;;4921095;28;88160;-68
2022/06/28 06:18:57;;;;;;;21.45;2.65;;;22.00;56.40;;;;;;4918104;28;87542;-69
2022/06/28 06:21:23;;;;;;;15.85;2.63;;;21.90;56.10;;;;;;4915639;28;86965;-71
2022/06/28 06:23:49;;;;;;;11.40;3.17;;;22.00;56.30;;;;;;4918227;28;89458;-67
2022/06/28 06:26:15;;;;;;;11.15;2.30;;;22.00;56.60;;;;;;4913452;28;89320;-72
2022/06/28 06:28:40;;;;;;;16.25;2.30;;;22.00;56.60;;;;;;4898347;28;87507;-70
2022/06/28 06:31:08;;;;;;;6.53;1.60;;;22.00;56.30;;;;;;4921055;28;87735;-72
2022/06/28 06:33:34;;;;;;;29.77;3.72;;;22.00;56.60;;;;;;4917076;28;87582;-72
2022/06/28 06:36:02;;;;;;;79.70;11.18;;;22.00;56.40;;;;;;4900480;28;91419;-70
2022/06/28 06:38:28;;;;;;;48.08;7.63;;;22.00;55.50;;;;;;4862824;28;87120;-69
2022/06/28 06:40:55;;;;;;;34.03;4.82;;;22.00;55.20;;;;;;4904804;28;86806;-73
2022/06/28 06:43:21;;;;;;;113.63;16.08;;;22.00;55.20;;;;;;4902543;28;90245;-69
2022/06/28 06:45:47;;;;;;;83.55;15.20;;;22.10;54.70;;;;;;4919404;28;88028;-73
2022/06/28 06:48:13;;;;;;;53.45;9.65;;;22.10;55.10;;;;;;4919817;28;88081;-69
2022/06/28 06:50:38;;;;;;;37.38;6.32;;;22.10;54.20;;;;;;4918721;28;88235;-69
2022/06/28 06:53:04;;;;;;;40.58;7.93;;;22.10;54.60;;;;;;4915757;28;88879;-70
2022/06/28 06:55:30;;;;;;;18.15;3.55;;;22.10;55.60;;;;;;4920714;28;87871;-69
2022/06/28 06:57:55;;;;;;;18.10;3.20;;;22.10;54.30;;;;;;4921091;28;87091;-69
2022/06/28 07:00:22;;;;;;;17.27;3.58;;;22.10;54.30;;;;;;4919184;28;87144;-69
2022/06/28 07:02:48;;;;;;;8.75;2.42;;;22.10;53.90;;;;;;4905005;28;91724;-71
2022/06/28 07:05:14;;;;;;;11.02;2.33;;;22.10;54.40;;;;;;4920367;28;87934;-72
2022/06/28 07:07:40;;;;;;;23.63;3.25;;;22.10;54.80;;;;;;4907673;28;86974;-70
2022/06/28 07:10:06;;;;;;;11.15;1.83;;;22.10;54.80;;;;;;4903625;28;88292;-70
2022/06/28 07:12:33;;;;;;;8.02;2.00;;;22.10;53.50;;;;;;4921679;28;89310;-71
2022/06/28 07:14:59;;;;;;;10.90;1.83;;;22.10;54.10;;;;;;4919675;28;90079;-69
2022/06/28 07:17:26;;;;;;;7.60;1.50;;;22.10;53.90;;;;;;4904045;28;87923;-72
2022/06/28 07:19:52;;;;;;;6.15;1.40;;;22.10;53.80;;;;;;4919112;28;87635;-69
2022/06/28 07:22:18;;;;;;;7.53;2.00;;;22.20;53.80;;;;;;4917478;28;88478;-71
2022/06/28 07:24:44;;;;;;;6.35;1.77;;;22.20;54.00;;;;;;4903900;28;89440;-72
2022/06/28 07:27:10;;;;;;;7.43;1.30;;;22.10;53.80;;;;;;4900939;28;87896;-73
2022/06/28 07:29:36;;;;;;;4.93;1.25;;;22.10;53.70;;;;;;4901193;28;88840;-69
2022/06/28 07:32:02;;;;;;;10.80;1.50;;;22.20;53.90;;;;;;4922412;28;87746;-69
2022/06/28 07:34:27;;;;;;;6.82;1.63;;;22.10;53.90;;;;;;4915385;28;88367;-69
2022/06/28 07:36:53;;;;;;;6.70;1.77;;;22.20;54.20;;;;;;4913281;28;88231;-71
2022/06/28 07:39:18;;;;;;;4.63;1.40;;;22.20;54.40;;;;;;4916466;28;87270;-69
2022/06/28 07:41:44;;;;;;;6.70;1.27;;;22.20;54.30;;;;;;4917966;28;88108;-71
2022/06/28 07:44:10;;;;;;;6.82;1.50;;;22.20;54.30;;;;;;4915106;28;89068;-71
2022/06/28 07:46:35;;;;;;;8.57;1.52;;;22.20;54.30;;;;;;4920064;28;87375;-69
2022/06/28 07:49:01;;;;;;;17.48;2.33;;;22.20;54.60;;;;;;4897798;28;88462;-69
2022/06/28 07:54:11;;;;;;;12.15;2.35;;;22.20;54.70;;;;;;4923457;28;87809;-69
2022/06/28 07:56:36;;;;;;;10.10;1.88;;;22.20;54.50;;;;;;4919441;28;87774;-68
2022/06/28 07:59:02;;;;;;;7.25;2.08;;;22.30;54.60;;;;;;4926175;28;87071;-72
2022/06/28 08:01:27;;;;;;;7.63;1.95;;;22.20;54.50;;;;;;4916907;28;88712;-71
2022/06/28 08:03:53;;;;;;;12.80;2.13;;;22.20;54.50;;;;;;4921005;28;88643;-69
2022/06/28 08:06:19;;;;;;;7.05;1.80;;;22.20;54.50;;;;;;4922724;28;86976;-69
2022/06/28 08:08:45;;;;;;;7.30;1.48;;;22.30;54.70;;;;;;4917155;28;87712;-70
2022/06/28 08:11:11;;;;;;;9.38;1.83;;;22.20;54.60;;;;;;4922307;28;87794;-70
2022/06/28 08:13:37;;;;;;;12.38;2.83;;;22.20;54.90;;;;;;4918460;28;87087;-71
2022/06/28 08:16:04;;;;;;;9.13;2.00;;;22.20;54.80;;;;;;4916559;28;87820;-70
2022/06/28 08:18:29;;;;;;;8.98;2.35;;;22.20;54.80;;;;;;4917934;28;87517;-70
2022/06/28 08:20:55;;;;;;;26.02;3.83;;;22.20;54.80;;;;;;4917754;28;88207;-69
2022/06/28 08:23:21;;;;;;;20.35;3.50;;;22.30;54.30;;;;;;4919775;28;87822;-71
2022/06/28 08:25:47;;;;;;;18.77;3.03;;;22.20;54.40;;;;;;4903453;28;89001;-69
2022/06/28 08:28:13;;;;;;;19.88;3.92;;;22.30;54.60;;;;;;4915068;28;88789;-69
2022/06/28 08:30:41;;;;;;;17.25;2.75;;;22.30;53.90;;;;;;4924443;28;87687;-69
2022/06/28 08:33:07;;;;;;;18.60;3.22;;;22.20;53.90;;;;;;4915475;28;87498;-69
2022/06/28 08:35:34;;;;;;;11.65;2.65;;;22.30;54.30;;;;;;4924522;28;87878;-70
2022/06/28 08:38:05;;;;;;;17.10;3.00;;;22.30;54.60;;;;;;4913490;28;87465;-70
2022/06/28 08:40:31;;;;;;;16.80;2.83;;;22.30;54.60;;;;;;4920232;28;88148;-70
2022/06/28 08:42:59;;;;;;;11.35;2.95;;;22.30;54.80;;;;;;4918993;28;88008;-71
2022/06/28 08:45:25;;;;;;;14.60;2.25;;;22.30;55.30;;;;;;4912829;28;87171;-69
2022/06/28 08:47:53;;;;;;;12.57;2.30;;;22.30;55.00;;;;;;4922137;28;88331;-72
2022/06/28 08:50:40;;;;;;;15.63;2.70;;;22.30;55.10;;;;;;4917531;28;89234;-70
2022/06/28 08:53:08;;;;;;;18.52;2.50;;;22.30;55.70;;;;;;4896351;28;89228;-69
2022/06/28 08:55:35;;;;;;;11.18;1.95;;;22.30;55.20;;;;;;4921878;28;87580;-69
2022/06/28 08:58:04;;;;;;;8.00;2.05;;;22.30;55.10;;;;;;4913502;28;87961;-70
2022/06/28 09:00:30;;;;;;;9.32;2.08;;;22.30;55.20;;;;;;4913303;28;88210;-70
2022/06/28 09:02:56;;;;;;;8.85;2.20;;;22.30;55.10;;;;;;4914281;28;87488;-70
2022/06/28 09:05:24;;;;;;;8.80;2.42;;;22.30;54.80;;;;;;4915866;28;87558;-70
2022/06/28 09:07:50;;;;;;;12.02;2.30;;;22.30;54.80;;;;;;4895686;28;88206;-69
2022/06/28 09:10:19;;;;;;;11.40;2.05;;;22.30;54.90;;;;;;4915437;28;87902;-70
2022/06/28 09:12:54;;;;;;;10.20;2.47;;;22.30;55.30;;;;;;4921983;28;87505;-72
2022/06/28 09:15:22;;;;;;;10.82;2.40;;;22.30;55.60;;;;;;4910724;28;88417;-70
2022/06/28 09:17:52;;;;;;;8.65;2.20;;;22.30;55.50;;;;;;4919307;28;88045;-73
2022/06/28 09:20:18;;;;;;;4.38;1.55;;;22.30;55.70;;;;;;4918266;28;87989;-70
2022/06/28 09:22:44;;;;;;;5.40;1.73;;;22.30;55.80;;;;;;4925158;28;88661;-70
2022/06/28 09:25:31;;;;;;;8.88;2.35;;;22.30;55.90;;;;;;4924032;28;87920;-70
2022/06/28 09:27:59;;;;;;;10.45;2.00;;;22.30;55.00;;;;;;4920118;28;87757;-73
2022/06/28 09:30:27;;;;;;;7.85;1.88;;;22.30;55.20;;;;;;4920660;28;88084;-69
2022/06/28 09:32:52;;;;;;;10.57;2.20;;;22.30;55.50;;;;;;4919052;28;87984;-72
2022/06/28 09:35:19;;;;;;;8.85;2.03;;;22.40;55.70;;;;;;4925267;28;87927;-71
2022/06/28 09:37:50;;;;;;;11.13;1.90;;;22.30;55.70;;;;;;4926315;28;87681;-70
2022/06/28 09:40:24;;;;;;;5.90;1.65;;;22.30;55.50;;;;;;4915381;28;91553;-70
2022/06/28 09:43:19;;;;;;;5.45;1.60;;;22.40;55.20;;;;;;4922202;28;89409;-71
2022/06/28 09:45:46;;;;;;;5.15;1.30;;;22.40;54.80;;;;;;4897523;28;87187;-70
2022/06/28 09:48:19;;;;;;;8.10;2.38;;;22.40;54.40;;;;;;4924112;28;87489;-69
2022/06/28 09:50:45;;;;;;;8.02;1.55;;;22.40;54.30;;;;;;4914647;28;88295;-69
2022/06/28 09:53:14;;;;;;;5.90;1.45;;;22.40;54.50;;;;;;4922549;28;87750;-72
2022/06/28 09:55:41;;;;;;;7.82;1.92;;;22.40;55.00;;;;;;4924133;28;87772;-69
2022/06/28 09:58:08;;;;;;;4.25;1.30;;;22.40;55.60;;;;;;4919836;28;86948;-69
2022/06/28 10:00:35;;;;;;;4.88;1.23;;;22.30;55.10;;;;;;4921566;28;88197;-69
2022/06/28 10:03:01;;;;;;;4.07;1.60;;;22.40;55.40;;;;;;4919490;28;87995;-72
2022/06/28 10:05:28;;;;;;;5.65;1.20;;;22.40;55.10;;;;;;4924243;28;88650;-69
2022/06/28 10:07:54;;;;;;;4.50;2.03;;;22.40;55.20;;;;;;4924058;28;87730;-70
2022/06/28 10:10:27;;;;;;;4.95;1.23;;;22.40;55.30;;;;;;4921759;28;87955;-69
2022/06/28 10:15:40;;;;;;;3.85;1.00;;;22.40;55.60;;;;;;4922944;28;87896;-69
2022/06/28 10:18:32;;;;;;;;;;;22.40;55.40;;;;;;4922436;28;87856;-69
2022/06/28 10:20:57;;;;;;;6.85;1.80;;;22.40;55.10;;;;;;4918958;28;88230;-72
2022/06/28 10:23:33;;;;;;;7.70;1.65;;;22.40;55.00;;;;;;4920194;28;87351;-69
2022/06/28 10:26:18;;;;;;;7.05;1.50;;;22.40;54.90;;;;;;4915130;28;87383;-69
2022/06/28 10:28:46;;;;;;;3.17;1.40;;;22.40;54.70;;;;;;4909678;28;87563;-70
2022/06/28 10:31:22;;;;;;;4.53;1.10;;;22.40;54.90;;;;;;4918728;28;88998;-71
2022/06/28 10:33:53;;;;;;;3.97;1.15;;;22.40;55.20;;;;;;4914315;28;91500;-69
2022/06/28 10:36:21;;;;;;;9.35;2.40;;;22.40;55.30;;;;;;4914735;28;87708;-72
2022/06/28 10:39:01;;;;;;;5.03;1.75;;;22.40;55.70;;;;;;4921478;28;88319;-72
2022/06/28 10:41:36;;;;;;;6.53;1.63;;;22.40;55.90;;;;;;4903295;28;90622;-68
2022/06/28 10:44:10;;;;;;;7.40;2.10;;;22.40;55.70;;;;;;4923329;28;87418;-69
2022/06/28 10:46:36;;;;;;;5.32;1.42;;;22.40;55.60;;;;;;4919329;28;87950;-70
2022/06/28 10:49:07;;;;;;;6.40;1.55;;;22.40;55.80;;;;;;4925935;28;86891;-69
2022/06/28 10:51:35;;;;;;;4.10;1.27;;;22.30;55.70;;;;;;4921724;28;88366;-71
2022/06/28 10:54:10;;;;;;;6.00;1.70;;;22.30;55.90;;;;;;4920146;28;87968;-70
2022/06/28 10:56:36;;;;;;;3.47;1.27;;;22.30;56.70;;;;;;4915424;28;87981;-69
2022/06/28 10:59:11;;;;;;;7.07;1.50;;;22.40;55.90;;;;;;4919647;28;87608;-71
2022/06/28 11:01:57;;;;;;;6.82;1.95;;;22.40;55.90;;;;;;4892269;28;88134;-70
2022/06/28 11:04:25;;;;;;;11.73;1.60;;;22.40;55.80;;;;;;4920555;28;89060;-70
2022/06/28 11:06:57;;;;;;;5.95;1.83;;;22.40;55.80;;;;;;4915941;28;87001;-71
2022/06/28 11:09:32;;;;;;;11.30;1.73;;;22.40;55.70;;;;;;4918493;28;88215;-73
2022/06/28 11:12:12;;;;;;;9.88;1.65;;;22.40;55.80;;;;;;4918690;28;88288;-68
2022/06/28 11:15:08;;;;;;;5.22;1.85;;;22.40;55.50;;;;;;4915659;28;88058;-73
2022/06/28 11:17:35;;;;;;;8.35;1.88;;;22.40;55.60;;;;;;4912958;28;88310;-71
2022/06/28 11:20:04;;;;;;;5.65;1.95;;;22.40;55.50;;;;;;4917507;28;87475;-71
2022/06/28 11:22:41;;;;;;;13.80;1.90;;;22.40;55.40;;;;;;4916558;28;91121;-67
2022/06/28 11:25:10;;;;;;;10.40;1.95;;;22.40;55.40;;;;;;4902513;28;89323;-69
2022/06/28 11:27:42;;;;;;;8.13;1.70;;;22.40;55.50;;;;;;4899397;28;87675;-68
2022/06/28 11:30:08;;;;;;;6.68;1.48;;;22.40;55.50;;;;;;4916373;28;87501;-68
2022/06/28 11:32:35;;;;;;;7.95;2.08;;;22.40;55.60;;;;;;4916425;28;88072;-69
2022/06/28 11:35:03;;;;;;;4.22;1.15;;;22.40;55.50;;;;;;4920864;28;87028;-69
2022/06/28 11:37:31;;;;;;;10.95;2.40;;;22.40;55.50;;;;;;4913869;28;87882;-71
2022/06/28 11:40:01;;;;;;;4.85;1.10;;;22.40;56.00;;;;;;4921923;28;86998;-68
2022/06/28 11:42:27;;;;;;;5.60;1.35;;;22.40;55.90;;;;;;4918216;28;88512;-69
2022/06/28 11:45:58;;;;;;;4.75;1.30;;;22.40;56.00;;;;;;4914438;28;91163;-69
2022/06/28 11:49:04;;;;;;;5.50;1.52;;;22.40;56.00;;;;;;4923361;28;89290;-67
2022/06/28 11:51:40;;;;;;;4.60;1.25;;;22.40;56.30;;;;;;4920705;28;87317;-69
2022/06/28 11:54:11;;;;;;;;;;;22.40;57.00;;;;;;4924300;28;88127;-69
2022/06/28 11:56:45;;;;;;;7.68;1.42;;;22.40;56.40;;;;;;4907234;28;89711;-70
2022/06/28 11:59:12;;;;;;;5.20;1.67;;;22.40;56.50;;;;;;4915067;28;87938;-70
2022/06/28 12:01:40;;;;;;;6.43;1.40;;;22.40;56.70;;;;;;4921822;28;87059;-70
2022/06/28 12:04:10;;;;;;;9.48;1.70;;;22.40;56.80;;;;;;4916344;28;88563;-69
2022/06/28 12:06:47;;;;;;;2.92;1.20;;;22.40;57.00;;;;;;4917870;28;87295;-70
2022/06/28 12:09:16;;;;;;;5.55;1.45;;;22.40;56.90;;;;;;4900953;28;88226;-69
2022/06/28 12:11:50;;;;;;;4.20;1.15;;;22.40;56.90;;;;;;4896340;28;89237;-68
2022/06/28 12:14:34;;;;;;;5.43;1.33;;;22.40;56.90;;;;;;4894938;28;92508;-69
2022/06/28 12:17:05;;;;;;;3.20;1.30;;;22.40;57.10;;;;;;4918203;28;89835;-70
2022/06/28 12:19:39;;;;;;;4.82;1.55;;;22.30;57.00;;;;;;4903403;28;87706;-70
2022/06/28 12:22:10;;;;;;;4.20;1.30;;;22.40;56.90;;;;;;4898102;28;91285;-69
2022/06/28 12:24:41;;;;;;;3.63;1.27;;;22.40;56.60;;;;;;4897579;28;90973;-73
2022/06/28 12:27:08;;;;;;;5.00;1.40;;;22.40;56.30;;;;;;4912110;28;88229;-68
2022/06/28 12:29:34;;;;;;;5.32;1.40;;;22.40;56.50;;;;;;4917475;28;87758;-69
2022/06/28 12:32:01;;;;;;;3.95;1.42;;;22.40;56.50;;;;;;4919014;28;87254;-69
2022/06/28 12:34:26;;;;;;;5.05;1.00;;;22.40;56.40;;;;;;4915627;28;88336;-72
2022/06/28 12:36:53;;;;;;;3.08;1.40;;;22.40;56.20;;;;;;4909745;28;90552;-69
2022/06/28 12:39:18;;;;;;;3.38;1.10;;;22.40;56.00;;;;;;4914605;28;87954;-68
2022/06/28 12:41:44;;;;;;;4.07;1.10;;;22.40;55.80;;;;;;4903655;28;88171;-69
2022/06/28 12:44:10;;;;;;;7.40;1.80;;;22.40;55.90;;;;;;4916092;28;88157;-69
2022/06/28 12:46:36;;;;;;;6.28;1.23;;;22.40;56.00;;;;;;4922578;28;87562;-73
2022/06/28 12:49:02;;;;;;;3.60;1.13;;;22.40;56.10;;;;;;4921830;28;88147;-69
2022/06/28 12:51:28;;;;;;;2.22;0.90;;;22.40;56.20;;;;;;4918385;28;86903;-69
2022/06/28 12:53:53;;;;;;;3.65;1.10;;;22.40;56.10;;;;;;4919246;28;88494;-69
2022/06/28 12:56:19;;;;;;;4.50;1.40;;;22.40;56.10;;;;;;4904485;28;90949;-68
2022/06/28 12:58:46;;;;;;;7.22;1.38;;;22.40;56.30;;;;;;4921534;28;87355;-71
2022/06/28 13:01:13;;;;;;;3.35;1.25;;;22.40;56.20;;;;;;4918292;28;87299;-68
2022/06/28 13:03:39;;;;;;;3.65;0.95;;;22.40;56.10;;;;;;4917837;28;89071;-68